Time;durP1;ratioP1;P1;durP2;ratioP2;P2;SDS_P1;SDS_P2;PMS_P1;PMS_P2;Temp;Humidity;BMP_temperature;BMP_pressure;BME280_temperature;BME280_humidity;BME280_pressure;Samples;Min_cycle;Max_cycle;Signal;HPM_P1;HPM_P2
2023/03/22 00:02:29;;;;;;;;;;;;;;;17.21;44.16;100395.03;4952340;28;128660;-63
2023/03/22 00:04:55;;;;;;;;;;;;;;;17.20;44.22;100385.25;4957777;28;98173;-67
2023/03/22 00:07:21;;;;;;;;;;;;;;;17.20;44.08;100385.25;4955239;28;99182;-63
2023/03/22 00:09:46;;;;;;;;;;;;;;;17.19;44.08;100386.38;4955448;28;129383;-66
2023/03/22 00:12:12;;;;;;;;;;;;;;;17.20;43.99;100376.28;4953114;28;118792;-66
2023/03/22 00:14:38;;;;;;;;;;;;;;;17.18;44.25;100374.69;4954479;28;97961;-62
2023/03/22 00:17:04;;;;;;;;;;;;;;;17.18;44.23;100366.53;4954782;28;108130;-67
2023/03/22 00:19:32;;;;;;;;;;;;;;;17.18;44.04;100366.53;4967825;28;127310;-65
2023/03/22 00:22:00;;;;;;;;;;;;;;;17.17;44.08;100362.19;4953478;28;98699;-65
2023/03/22 00:24:25;;;;;;;;;;;;;;;17.17;44.02;100372.25;4957567;28;98140;-62
2023/03/22 00:26:51;;;;;;;;;;;;;;;17.15;44.28;100358.19;4951885;28;112382;-63
2023/03/22 00:29:18;;;;;;;;;;;;;;;17.14;44.26;100359.31;4955025;28;118683;-65
2023/03/22 00:31:44;;;;;;;;;;;;;;;17.13;44.21;100353.06;4957746;28;99808;-66
2023/03/22 00:34:10;;;;;;;;;;;;;;;17.12;44.16;100347.91;4955464;28;127714;-62
2023/03/22 00:36:37;;;;;;;;;;;;;;;17.12;44.17;100364.25;4953683;28;98048;-63
2023/03/22 00:39:03;;;;;;;;;;;;;;;17.10;44.19;100359.13;4939545;28;98437;-62
2023/03/22 00:41:29;;;;;;;;;;;;;;;17.10;44.31;100347.44;4953386;28;128202;-66
2023/03/22 00:43:54;;;;;;;;;;;;;;;17.10;44.17;100350.16;4952701;28;100084;-66
2023/03/22 00:46:20;;;;;;;;;;;;;;;17.08;44.11;100341.47;4953335;28;97958;-65
2023/03/22 00:48:47;;;;;;;;;;;;;;;17.08;44.27;100345.00;4969209;28;98386;-63
2023/03/22 00:51:16;;;;;;;;;;;;;;;17.07;43.97;100337.16;4953006;28;98718;-62
2023/03/22 00:53:42;;;;;;;;;;;;;;;17.07;44.12;100337.16;4958576;28;98276;-65
2023/03/22 00:56:09;;;;;;;;;;;;;;;17.07;44.27;100339.88;4939531;28;98051;-65
2023/03/22 00:58:35;;;;;;;;;;;;;;;17.07;44.22;100339.88;4957295;28;98416;-66
2023/03/22 01:01:01;;;;;;;;;;;;;;;17.06;44.30;100341.81;4952627;28;125177;-65
2023/03/22 01:03:27;;;;;;;;;;;;;;;17.05;44.20;100353.78;4953910;28;106209;-64
2023/03/22 01:05:55;;;;;;;;;;;;;;;17.05;44.25;100347.53;4955905;28;113550;-62
2023/03/22 01:08:22;;;;;;;;;;;;;;;17.05;44.10;100344.81;4952662;28;99347;-62
2023/03/22 01:10:49;;;;;;;;;;;;;;;17.03;44.35;100353.31;4957036;28;101795;-62
2023/03/22 01:13:15;;;;;;;;;;;;;;;17.03;44.23;100352.50;4951144;28;97890;-62
2023/03/22 01:15:41;;;;;;;;;;;;;;;17.02;44.19;100337.31;4956397;28;98172;-66
2023/03/22 01:18:07;;;;;;;;;;;;;;;17.02;44.03;100331.84;4955311;28;98359;-63
2023/03/22 01:20:33;;;;;;;;;;;;;;;17.01;44.20;100330.22;4952179;28;98663;-66
2023/03/22 01:22:59;;;;;;;;;;;;;;;17.00;44.33;100336.78;4951446;28;119804;-67
2023/03/22 01:25:25;;;;;;;;;;;;;;;16.97;44.33;100332.78;4957968;28;97915;-65
2023/03/22 01:27:51;;;;;;;;;;;;;;;16.98;44.28;100341.75;4953986;28;128073;-65
2023/03/22 01:30:17;;;;;;;;;;;;;;;16.96;44.19;100328.44;4980895;27;98435;-62
2023/03/22 01:32:43;;;;;;;;;;;;;;;16.96;44.26;100324.94;4972076;27;127877;-62
2023/03/22 01:35:09;;;;;;;;;;;;;;;16.95;44.26;100320.59;4955793;28;111751;-66
2023/03/22 01:37:35;;;;;;;;;;;;;;;16.93;44.30;100315.47;4959126;28;99248;-62
2023/03/22 01:40:01;;;;;;;;;;;;;;;16.92;44.16;100309.22;4955545;28;121593;-65
2023/03/22 01:42:27;;;;;;;;;;;;;;;16.89;44.25;100298.94;4949878;28;127229;-65
2023/03/22 01:45:31;;;;;;;;;;;;;;;16.91;44.25;100306.81;4955953;28;97862;-62
2023/03/22 01:47:58;;;;;;;;;;;;;;;16.88;44.25;100300.06;4955753;28;98849;-66
2023/03/22 01:50:24;;;;;;;;;;;;;;;16.87;44.25;100295.75;4930348;28;127612;-62
2023/03/22 01:52:50;;;;;;;;;;;;;;;16.85;44.38;100303.41;4983863;27;127878;-66
2023/03/22 01:55:17;;;;;;;;;;;;;;;16.84;44.21;100290.94;4981611;27;111362;-62
2023/03/22 01:57:43;;;;;;;;;;;;;;;16.85;44.20;100302.63;4955327;28;99097;-65
2023/03/22 02:00:14;;;;;;;;;;;;;;;16.83;44.36;100296.69;4951387;28;127729;-63
2023/03/22 02:02:40;;;;;;;;;;;;;;;16.82;44.34;100295.91;4951433;28;98544;-62
2023/03/22 02:05:07;;;;;;;;;;;;;;;16.80;44.18;100300.84;4950134;28;97812;-65
2023/03/22 02:07:34;;;;;;;;;;;;;;;16.80;44.32;100295.38;4960697;28;99750;-65
2023/03/22 02:10:00;;;;;;;;;;;;;;;16.79;44.39;100301.94;4954311;28;98634;-63
2023/03/22 02:13:17;;;;;;;;;;;;;;;16.76;44.31;100299.84;4953055;28;98538;-63
2023/03/22 02:16:00;;;;;;;;;;;;;;;16.77;44.24;100295.22;4964172;28;98100;-65
2023/03/22 02:18:33;;;;;;;;;;;;;;;16.75;44.25;100294.72;4952084;28;99263;-65
2023/03/22 02:21:29;;;;;;;;;;;;;;;16.72;44.26;100298.03;4958650;28;98729;-65
2023/03/22 02:24:12;;;;;;;;;;;;;;;16.68;44.25;100300.56;4952505;28;98235;-65
2023/03/22 02:26:50;;;;;;;;;;;;;;;16.64;44.16;100300.41;4955378;28;98268;-62
2023/03/22 02:29:21;;;;;;;;;;;;;;;16.61;44.19;100295.56;4955316;28;98536;-66
2023/03/22 02:32:12;;;;;;;;;;;;;;;16.58;44.13;100293.47;4978629;27;125568;-63
2023/03/22 02:34:57;;;;;;;;;;;;;;;16.56;44.23;100292.19;4959341;28;98400;-65
2023/03/22 02:37:37;;;;;;;;;;;;;;;16.53;44.32;100290.09;4959363;28;98024;-64
2023/03/22 02:40:11;;;;;;;;;;;;;;;16.50;44.34;100277.09;4952034;28;128333;-65
2023/03/22 02:42:54;;;;;;;;;;;;;;;16.50;44.50;100282.53;4951653;28;124467;-65
2023/03/22 02:45:26;;;;;;;;;;;;;;;16.47;44.18;100285.91;4953149;28;118470;-62
2023/03/22 02:48:06;;;;;;;;;;;;;;;16.43;44.43;100283.81;4958352;28;98317;-65
2023/03/22 02:50:48;;;;;;;;;;;;;;;16.42;44.30;100279.44;4951689;28;98389;-62
2023/03/22 02:53:26;;;;;;;;;;;;;;;16.40;44.34;100276.25;4965331;28;126434;-62
2023/03/22 02:55:57;;;;;;;;;;;;;;;16.39;44.41;100282.81;4950836;28;108140;-63
2023/03/22 02:59:02;;;;;;;;;;;;;;;16.36;44.44;100283.44;4953416;28;97874;-62
2023/03/22 03:01:34;;;;;;;;;;;;;;;16.34;44.36;100282.91;4942661;28;99556;-63
2023/03/22 03:04:03;;;;;;;;;;;;;;;16.32;43.99;100274.28;4957491;28;123675;-65
2023/03/22 03:06:31;;;;;;;;;;;;;;;16.32;44.32;100274.28;4969049;28;98167;-66
2023/03/22 03:09:01;;;;;;;;;;;;;;;16.30;44.29;100281.94;4955158;28;98275;-65
2023/03/22 03:11:27;;;;;;;;;;;;;;;16.29;44.21;100277.63;4980911;27;98590;-65
2023/03/22 03:13:53;;;;;;;;;;;;;;;16.28;44.32;100278.75;4950779;28;128384;-65
2023/03/22 03:16:25;;;;;;;;;;;;;;;16.27;44.22;100284.47;4951849;28;127716;-63
2023/03/22 03:19:19;;;;;;;;;;;;;;;16.25;44.14;100275.84;4951595;28;97919;-65
2023/03/22 03:21:53;;;;;;;;;;;;;;;16.23;44.36;100270.72;4951650;28;99092;-65
2023/03/22 03:24:30;;;;;;;;;;;;;;;16.22;44.30;100269.09;4952105;28;102391;-63
2023/03/22 03:26:59;;;;;;;;;;;;;;;16.19;44.36;100275.97;4984249;27;98312;-65
2023/03/22 03:29:35;;;;;;;;;;;;;;;16.19;44.32;100273.25;4967300;27;98106;-63
2023/03/22 03:32:24;;;;;;;;;;;;;;;16.18;44.34;100273.53;4955097;28;98838;-63
2023/03/22 03:35:04;;;;;;;;;;;;;;;16.16;44.26;100273.84;4957174;28;100879;-66
2023/03/22 03:37:38;;;;;;;;;;;;;;;16.15;44.32;100283.13;4955001;28;98225;-62
2023/03/22 03:40:09;;;;;;;;;;;;;;;16.13;44.47;100279.91;4955178;28;97839;-65
2023/03/22 03:42:37;;;;;;;;;;;;;;;16.13;44.33;100281.81;4955903;28;98929;-63
2023/03/22 03:45:03;;;;;;;;;;;;;;;16.12;44.20;100286.47;4943236;28;99093;-62
2023/03/22 03:47:29;;;;;;;;;;;;;;;16.11;44.52;100284.88;4943308;28;107437;-63
2023/03/22 03:49:55;;;;;;;;;;;;;;;16.10;44.43;100282.44;4953363;28;112458;-63
2023/03/22 03:52:23;;;;;;;;;;;;;;;16.09;44.32;100280.84;4984608;27;98343;-66
2023/03/22 03:54:49;;;;;;;;;;;;;;;16.07;44.38;100278.44;4956180;28;98154;-62
2023/03/22 03:57:15;;;;;;;;;;;;;;;16.07;44.47;100286.59;4959722;28;114141;-65
2023/03/22 03:59:41;;;;;;;;;;;;;;;16.06;44.11;100284.97;4956832;28;112481;-63
2023/03/22 04:02:07;;;;;;;;;;;;;;;16.05;44.45;100286.09;4955285;28;126571;-64
2023/03/22 04:04:33;;;;;;;;;;;;;;;16.04;44.36;100284.47;4954653;28;127591;-62
2023/03/22 04:06:59;;;;;;;;;;;;;;;16.03;44.19;100279.34;4968991;28;98262;-63
2023/03/22 04:09:27;;;;;;;;;;;;;;;16.02;44.41;100275.81;4956141;28;98300;-66
2023/03/22 04:11:53;;;;;;;;;;;;;;;16.01;44.24;100276.94;4956110;28;106831;-63
2023/03/22 04:14:19;;;;;;;;;;;;;;;16.00;44.45;100277.25;4956261;28;98234;-63
2023/03/22 04:16:45;;;;;;;;;;;;;;;15.99;44.40;100275.63;4955465;28;98490;-63
2023/03/22 04:19:11;;;;;;;;;;;;;;;15.99;44.52;100286.50;4956214;28;97906;-65
2023/03/22 04:21:37;;;;;;;;;;;;;;;15.98;44.47;100279.47;4954612;28;122466;-63
2023/03/22 04:24:03;;;;;;;;;;;;;;;15.96;44.49;100282.50;4952213;28;112770;-63
2023/03/22 04:26:30;;;;;;;;;;;;;;;15.97;44.61;100280.59;4956631;28;98324;-65
2023/03/22 04:28:57;;;;;;;;;;;;;;;15.95;44.35;100281.69;4954027;28;97934;-65
2023/03/22 04:31:26;;;;;;;;;;;;;;;15.94;44.33;100277.34;4956559;28;98932;-66
2023/03/22 04:33:55;;;;;;;;;;;;;;;15.93;44.34;100280.41;4956988;28;98875;-65
2023/03/22 04:36:22;;;;;;;;;;;;;;;15.91;44.47;100283.41;4956231;28;97956;-65
2023/03/22 04:38:48;;;;;;;;;;;;;;;15.92;44.37;100276.06;4955568;28;110048;-66
2023/03/22 04:41:14;;;;;;;;;;;;;;;15.90;44.35;100273.66;4958010;28;121786;-62
2023/03/22 04:43:40;;;;;;;;;;;;;;;15.90;44.30;100276.38;4952772;28;98836;-63
2023/03/22 04:46:08;;;;;;;;;;;;;;;15.89;44.37;100273.97;4953043;28;124648;-63
2023/03/22 04:48:38;;;;;;;;;;;;;;;15.88;44.31;100278.59;4954257;28;97781;-65
2023/03/22 04:51:07;;;;;;;;;;;;;;;15.88;44.54;100273.16;4954577;28;98695;-66
2023/03/22 04:53:37;;;;;;;;;;;;;;;15.87;44.31;100276.97;4955159;28;98518;-65
2023/03/22 04:56:05;;;;;;;;;;;;;;;15.87;44.46;100268.81;4951828;28;99506;-62
2023/03/22 04:58:31;;;;;;;;;;;;;;;15.87;44.46;100270.72;4953421;28;98197;-63
2023/03/22 05:00:57;;;;;;;;;;;;;;;15.87;44.50;100262.59;4952258;28;98638;-62
2023/03/22 05:03:23;;;;;;;;;;;;;;;15.85;44.23;100264.81;4949928;28;127878;-66
2023/03/22 05:05:56;;;;;;;;;;;;;;;15.87;44.31;100263.38;4952317;28;114750;-63
2023/03/22 05:08:26;;;;;;;;;;;;;;;15.88;44.43;100273.16;4955902;28;97892;-65
2023/03/22 05:10:56;;;;;;;;;;;;;;;15.89;44.24;100273.97;4952447;28;98782;-63
2023/03/22 05:13:23;;;;;;;;;;;;;;;15.90;44.30;100268.22;4953183;28;124885;-65
2023/03/22 05:15:50;;;;;;;;;;;;;;;15.91;44.14;100264.38;4954152;28;127362;-62
2023/03/22 05:18:16;;;;;;;;;;;;;;;15.95;44.30;100264.56;4965478;27;98372;-63
2023/03/22 05:20:42;;;;;;;;;;;;;;;15.96;44.20;100268.91;4955269;28;98534;-66
2023/03/22 05:23:09;;;;;;;;;;;;;;;15.98;44.37;100271.31;4962751;27;127035;-62
2023/03/22 05:25:35;;;;;;;;;;;;;;;15.99;44.32;100262.84;4950701;28;119169;-62
2023/03/22 05:28:02;;;;;;;;;;;;;;;16.02;44.23;100272.31;4953151;28;107484;-62
2023/03/22 05:30:28;;;;;;;;;;;;;;;16.04;44.08;100267.38;4949407;28;124224;-65
2023/03/22 05:32:58;;;;;;;;;;;;;;;16.07;44.27;100264.00;4954694;28;98334;-62
2023/03/22 05:35:25;;;;;;;;;;;;;;;16.10;44.14;100263.41;4948903;28;97957;-66
2023/03/22 05:37:51;;;;;;;;;;;;;;;16.13;43.99;100266.31;4949496;28;98185;-63
2023/03/22 05:40:17;;;;;;;;;;;;;;;16.18;44.19;100277.06;4950441;28;99138;-63
2023/03/22 05:42:44;;;;;;;;;;;;;;;16.22;43.94;100274.53;4947520;28;128547;-66
2023/03/22 05:45:10;;;;;;;;;;;;;;;16.29;44.06;100274.91;4947560;28;98055;-62
2023/03/22 05:47:38;;;;;;;;;;;;;;;16.34;43.95;100276.69;4949542;28;98032;-62
2023/03/22 05:50:08;;;;;;;;;;;;;;;16.40;44.04;100270.81;4947446;28;98506;-62
2023/03/22 05:52:34;;;;;;;;;;;;;;;16.43;43.78;100270.19;4948643;28;98838;-63
2023/03/22 05:54:59;;;;;;;;;;;;;;;16.48;43.82;100271.97;4948954;28;98214;-65
2023/03/22 05:57:26;;;;;;;;;;;;;;;16.52;43.96;100267.53;4953885;28;98303;-66
2023/03/22 05:59:55;;;;;;;;;;;;;;;16.55;43.90;100260.66;4949635;28;98691;-67
2023/03/22 06:02:21;;;;;;;;;;;;;;;16.58;43.83;100260.03;4948639;27;99064;-66
2023/03/22 06:04:47;;;;;;;;;;;;;;;16.62;43.78;100267.28;4956180;28;97883;-63
2023/03/22 06:07:13;;;;;;;;;;;;;;;16.68;43.80;100262.47;4952626;28;98159;-66
2023/03/22 06:09:39;;;;;;;;;;;;;;;16.73;43.85;100256.94;4955965;28;107237;-66
2023/03/22 06:12:05;;;;;;;;;;;;;;;16.78;43.79;100256.81;4959458;28;128887;-65
2023/03/22 06:14:31;;;;;;;;;;;;;;;16.87;43.91;100254.13;4952416;28;126024;-62
2023/03/22 06:16:57;;;;;;;;;;;;;;;16.97;43.68;100253.81;4951197;28;115382;-63
2023/03/22 06:19:24;;;;;;;;;;;;;;;17.08;43.88;100255.13;4950699;28;128362;-62
2023/03/22 06:21:51;;;;;;;;;;;;;;;17.19;43.65;100247.50;4952000;28;99197;-66
2023/03/22 06:24:18;;;;;;;;;;;;;;;17.26;43.65;100250.56;4963701;28;98416;-63
2023/03/22 06:26:44;;;;;;;;;;;;;;;17.35;43.66;100254.09;4949953;28;97765;-63
2023/03/22 06:29:10;;;;;;;;;;;;;;;17.43;43.56;100260.69;4952361;28;98813;-63
2023/03/22 06:31:35;;;;;;;;;;;;;;;17.49;43.76;100262.16;4947813;28;125730;-63
2023/03/22 06:34:02;;;;;;;;;;;;;;;17.55;43.74;100260.06;4950328;27;126769;-65
2023/03/22 06:36:28;;;;;;;;;;;;;;;17.61;43.65;100264.25;4947768;28;97968;-63
2023/03/22 06:38:54;;;;;;;;;;;;;;;17.64;43.56;100260.84;4966390;28;99967;-64
2023/03/22 06:41:20;;;;;;;;;;;;;;;17.70;43.62;100254.16;4950118;28;128223;-66
2023/03/22 06:43:46;;;;;;;;;;;;;;;17.76;43.55;100254.81;4950750;28;97939;-62
2023/03/22 06:46:12;;;;;;;;;;;;;;;17.81;43.49;100258.19;4949276;28;118155;-63
2023/03/22 06:48:38;;;;;;;;;;;;;;;17.87;43.65;100264.28;4950817;28;99159;-63
2023/03/22 06:51:04;;;;;;;;;;;;;;;17.93;43.76;100265.72;4950649;28;126795;-66
2023/03/22 06:53:30;;;;;;;;;;;;;;;18.02;43.63;100265.72;4950682;28;105543;-66
2023/03/22 06:55:56;;;;;;;;;;;;;;;18.11;43.49;100266.50;4948783;28;118299;-65
2023/03/22 06:58:22;;;;;;;;;;;;;;;18.21;43.57;100266.19;4948460;28;128172;-65
2023/03/22 07:00:48;;;;;;;;;;;;;;;18.29;43.51;100268.09;4965303;27;99589;-65
2023/03/22 07:03:14;;;;;;;;;;;;;;;18.36;43.45;100267.59;4952333;28;98400;-63
2023/03/22 07:05:40;;;;;;;;;;;;;;;18.39;43.36;100267.75;4950322;28;105554;-67
2023/03/22 07:08:06;;;;;;;;;;;;;;;18.47;43.36;100266.16;4954161;28;127962;-66
2023/03/22 07:10:32;;;;;;;;;;;;;;;18.52;43.25;100265.97;4953230;28;98657;-63
2023/03/22 07:12:58;;;;;;;;;;;;;;;18.56;43.23;100266.91;4952812;28;127112;-66
2023/03/22 07:15:24;;;;;;;;;;;;;;;18.61;43.34;100266.72;4952639;28;98087;-64
2023/03/22 07:17:52;;;;;;;;;;;;;;;18.70;43.11;100266.72;4948599;27;98367;-65
2023/03/22 07:20:19;;;;;;;;;;;;;;;18.80;43.10;100263.66;4954268;28;128208;-62
2023/03/22 07:22:45;;;;;;;;;;;;;;;18.93;42.98;100263.75;4954626;28;98166;-63
2023/03/22 07:25:11;;;;;;;;;;;;;;;19.07;43.01;100267.06;4951796;28;98548;-63
2023/03/22 07:27:37;;;;;;;;;;;;;;;19.19;43.14;100271.84;4949988;28;110566;-62
2023/03/22 07:30:04;;;;;;;;;;;;;;;19.31;42.92;100267.25;4950563;28;128021;-64
2023/03/22 07:32:30;;;;;;;;;;;;;;;19.45;42.66;100264.25;4949004;28;98365;-62
2023/03/22 07:34:56;;;;;;;;;;;;;;;19.61;42.70;100273.53;4953294;28;116424;-65
2023/03/22 07:37:21;;;;;;;;;;;;;;;19.74;42.56;100257.19;4947051;28;128275;-64
2023/03/22 07:39:47;;;;;;;;;;;;;;;19.88;42.53;100260.44;4950113;28;127225;-63
2023/03/22 07:42:13;;;;;;;;;;;;;;;20.10;42.36;100262.03;4962903;28;126519;-63
2023/03/22 07:44:39;;;;;;;;;;;;;;;20.36;42.22;100253.59;4952316;28;119487;-67
2023/03/22 07:47:05;;;;;;;;;;;;;;;20.65;42.05;100257.31;4948399;28;127680;-63
2023/03/22 07:49:31;;;;;;;;;;;;;;;21.09;41.60;100259.16;4950190;28;111629;-63
2023/03/22 07:51:57;;;;;;;;;;;;;;;21.60;41.23;100253.31;4947403;28;127828;-66
2023/03/22 07:54:23;;;;;;;;;;;;;;;22.01;40.86;100254.91;4948340;27;98478;-63
2023/03/22 07:56:49;;;;;;;;;;;;;;;22.25;40.99;100259.53;4948993;28;128796;-63
2023/03/22 07:59:15;;;;;;;;;;;;;;;22.57;40.86;100254.06;4947675;28;128663;-64
2023/03/22 08:01:42;;;;;;;;;;;;;;;22.71;41.09;100253.63;4953846;28;98264;-66
2023/03/22 08:04:08;;;;;;;;;;;;;;;22.86;41.29;100263.03;4949270;28;113192;-66
2023/03/22 08:06:35;;;;;;;;;;;;;;;22.95;40.99;100264.50;4950321;28;127887;-67
2023/03/22 08:09:02;;;;;;;;;;;;;;;23.09;41.05;100254.97;4963785;28;100640;-63
2023/03/22 08:11:29;;;;;;;;;;;;;;;23.31;40.93;100253.53;4949486;28;98369;-66
2023/03/22 08:13:55;;;;;;;;;;;;;;;23.57;40.84;100250.97;4948816;28;100505;-67
2023/03/22 08:16:21;;;;;;;;;;;;;;;24.03;40.67;100251.16;4952297;28;98215;-67
2023/03/22 08:18:47;;;;;;;;;;;;;;;24.21;40.41;100246.00;4952838;28;98272;-63
2023/03/22 08:21:13;;;;;;;;;;;;;;;24.34;40.56;100252.13;4983855;27;118622;-66
2023/03/22 08:23:39;;;;;;;;;;;;;;;24.57;40.58;100255.75;4963762;27;118584;-64
2023/03/22 08:26:05;;;;;;;;;;;;;;;24.55;40.63;100260.00;4950554;28;126799;-64
2023/03/22 08:28:31;;;;;;;;;;;;;;;24.53;40.89;100254.09;4954002;28;128354;-64
2023/03/22 08:30:57;;;;;;;;;;;;;;;24.61;40.84;100251.09;4958284;28;98574;-64
2023/03/22 08:33:24;;;;;;;;;;;;;;;24.63;41.02;100250.72;4949583;28;119891;-64
2023/03/22 08:35:50;;;;;;;;;;;;;;;24.66;40.85;100252.75;4954046;28;98414;-65
2023/03/22 08:38:16;;;;;;;;;;;;;;;24.57;41.21;100252.19;4952531;28;98216;-64
2023/03/22 08:40:44;;;;;;;;;;;;;;;24.43;41.42;100256.28;4956316;28;98023;-65
2023/03/22 08:43:10;;;;;;;;;;;;;;;24.35;41.71;100243.50;4951702;28;98166;-64
2023/03/22 08:45:36;;;;;;;;;;;;;;;24.24;41.74;100245.25;4949622;28;126555;-64
2023/03/22 08:48:02;;;;;;;;;;;;;;;24.08;42.13;100242.59;4951725;28;99277;-67
2023/03/22 08:50:28;;;;;;;;;;;;;;;23.97;42.03;100236.91;4954383;28;97881;-64
2023/03/22 08:52:59;;;;;;;;;;;;;;;23.92;42.04;100239.94;4954425;28;111895;-64
2023/03/22 08:55:25;;;;;;;;;;;;;;;23.91;41.94;100238.34;4953699;28;127799;-67
2023/03/22 08:57:51;;;;;;;;;;;;;;;23.97;41.88;100225.06;4951384;28;128665;-66
2023/03/22 09:00:17;;;;;;;;;;;;;;;23.98;41.83;100230.22;4956067;28;99419;-66
2023/03/22 09:02:43;;;;;;;;;;;;;;;23.95;42.02;100228.19;4953210;28;97856;-66
2023/03/22 09:05:09;;;;;;;;;;;;;;;23.88;42.09;100241.03;4952402;28;110785;-66
2023/03/22 09:07:35;;;;;;;;;;;;;;;23.85;42.24;100245.28;4954942;28;99264;-67
2023/03/22 09:10:01;;;;;;;;;;;;;;;23.87;41.99;100236.69;4954129;28;98111;-67
2023/03/22 09:12:28;;;;;;;;;;;;;;;23.79;42.22;100233.00;4954718;28;118755;-65
2023/03/22 09:14:54;;;;;;;;;;;;;;;23.82;42.30;100231.47;4953871;28;99146;-63
2023/03/22 09:17:20;;;;;;;;;;;;;;;23.77;42.19;100230.59;4951247;28;99128;-66
2023/03/22 09:19:46;;;;;;;;;;;;;;;23.69;42.35;100234.34;4952077;28;127742;-64
2023/03/22 09:22:13;;;;;;;;;;;;;;;23.61;42.26;100229.03;4951626;28;97912;-67
2023/03/22 09:24:39;;;;;;;;;;;;;;;23.56;42.50;100235.63;4956946;28;127180;-67
2023/03/22 09:27:04;;;;;;;;;;;;;;;23.53;42.51;100230.84;4955630;28;99225;-66
2023/03/22 09:29:30;;;;;;;;;;;;;;;23.56;42.37;100213.63;4953260;28;128331;-64
2023/03/22 09:31:56;;;;;;;;;;;;;;;23.67;42.06;100219.38;4953540;28;117447;-63
2023/03/22 09:34:22;;;;;;;;;;;;;;;23.70;41.94;100218.66;4983236;27;129628;-65
2023/03/22 09:36:48;;;;;;;;;;;;;;;23.79;42.26;100208.22;4949076;28;126878;-64
2023/03/22 09:39:15;;;;;;;;;;;;;;;23.93;42.08;100208.53;4956253;27;98196;-64
2023/03/22 09:41:45;;;;;;;;;;;;;;;24.08;41.82;100214.28;4952959;28;97787;-66
2023/03/22 09:44:25;;;;;;;;;;;;;;;24.28;41.60;100204.81;4954762;28;98816;-66
2023/03/22 09:46:52;;;;;;;;;;;;;;;24.43;41.74;100203.94;4966833;27;98318;-66
2023/03/22 09:49:21;;;;;;;;;;;;;;;24.65;41.34;100194.09;4982476;27;104969;-66
2023/03/22 09:51:52;;;;;;;;;;;;;;;24.88;41.43;100185.00;4956396;28;98752;-67
2023/03/22 09:54:34;;;;;;;;;;;;;;;25.11;41.24;100185.78;4970995;27;98553;-67
2023/03/22 09:57:14;;;;;;;;;;;;;;;25.16;41.41;100190.94;4947801;28;98086;-63
2023/03/22 09:59:52;;;;;;;;;;;;;;;25.32;41.19;100179.75;4953756;28;98147;-66
2023/03/22 10:02:26;;;;;;;;;;;;;;;25.85;40.70;100176.84;4955161;28;104994;-66
2023/03/22 10:05:12;;;;;;;;;;;;;;;26.47;40.20;100172.75;4953975;28;98843;-66
2023/03/22 10:07:57;;;;;;;;;;;;;;;26.89;40.04;100169.53;4979951;27;97926;-66
2023/03/22 10:10:23;;;;;;;;;;;;;;;28.16;38.94;100178.78;4950920;28;98502;-65
2023/03/22 10:12:56;;;;;;;;;;;;;;;29.05;38.54;100176.03;4964643;28;118519;-65
2023/03/22 10:15:35;;;;;;;;;;;;;;;30.03;38.55;100169.69;4955443;28;98418;-65
2023/03/22 10:18:02;;;;;;;;;;;;;;;30.85;38.23;100181.41;4966984;28;127974;-65
2023/03/22 10:20:36;;;;;;;;;;;;;;;32.07;37.08;100175.19;4951360;28;98040;-65
2023/03/22 10:23:02;;;;;;;;;;;;;;;33.44;36.35;100166.81;4949876;28;115781;-67
2023/03/22 10:25:39;;;;;;;;;;;;;;;34.43;35.90;100166.59;4951722;28;118770;-68
2023/03/22 10:28:36;;;;;;;;;;;;;;;35.26;35.89;100168.03;4953345;28;107230;-67
2023/03/22 10:31:02;;;;;;;;;;;;;;;35.35;36.47;100156.97;4947058;28;98336;-65
2023/03/22 10:33:49;;;;;;;;;;;;;;;35.28;36.78;100157.16;4950927;28;117934;-66
2023/03/22 10:36:16;;;;;;;;;;;;;;;35.13;37.38;100145.56;4953057;28;98642;-68
2023/03/22 10:38:46;;;;;;;;;;;;;;;34.77;37.87;100133.78;4952260;28;98225;-65
2023/03/22 10:41:12;;;;;;;;;;;;;;;35.86;36.64;100133.84;4949512;28;123300;-65
2023/03/22 10:43:38;;;;;;;;;;;;;;;37.22;35.31;100130.03;4952416;28;97818;-65
2023/03/22 10:46:06;;;;;;;;;;;;;;;38.41;34.85;100135.41;4938057;28;101026;-68
2023/03/22 10:48:39;;;;;;;;;;;;;;;39.64;34.04;100135.13;4967491;27;98423;-66
2023/03/22 10:51:05;;;;;;;;;;;;;;;40.42;34.01;100124.09;4952040;28;122241;-66
2023/03/22 10:53:39;;;;;;;;;;;;;;;40.58;34.38;100114.44;4952434;28;98105;-66
2023/03/22 10:56:08;;;;;;;;;;;;;;;41.06;34.08;100114.34;4949800;28;123125;-65
2023/03/22 10:58:36;;;;;;;;;;;;;;;41.71;33.60;100101.03;4954834;28;119415;-66
2023/03/22 11:01:04;;;;;;;;;;;;;;;41.93;33.93;100098.53;4953032;28;126868;-66
2023/03/22 11:03:33;;;;;;;;;;;;;;;42.00;34.33;100093.75;4952487;28;99095;-68
2023/03/22 11:06:22;;;;;;;;;;;;;;;41.90;34.51;100090.28;4957870;28;98404;-68
2023/03/22 11:08:53;;;;;;;;;;;;;;;41.94;34.95;100096.50;4951968;28;124740;-68
2023/03/22 11:11:26;;;;;;;;;;;;;;;41.87;34.74;100089.22;4950818;28;98111;-66
2023/03/22 11:14:01;;;;;;;;;;;;;;;41.76;35.49;100076.94;4953073;28;97913;-68
2023/03/22 11:16:28;;;;;;;;;;;;;;;42.11;34.80;100071.25;4987332;27;101552;-66
2023/03/22 11:18:54;;;;;;;;;;;;;;;42.32;34.52;100069.22;4948879;28;98456;-67
2023/03/22 11:21:22;;;;;;;;;;;;;;;42.31;34.44;100074.09;4953937;28;97967;-69
2023/03/22 11:23:55;;;;;;;;;;;;;;;41.93;34.90;100058.94;4951972;28;100739;-68
2023/03/22 11:26:30;;;;;;;;;;;;;;;40.38;36.64;100050.13;4956578;28;98869;-65
2023/03/22 11:29:01;;;;;;;;;;;;;;;39.48;37.14;100037.63;4953010;28;99896;-66
2023/03/22 11:31:27;;;;;;;;;;;;;;;38.59;38.01;100046.59;4952085;28;98610;-69
2023/03/22 11:33:55;;;;;;;;;;;;;;;38.30;37.74;100042.97;4951754;28;116868;-68
2023/03/22 11:36:21;;;;;;;;;;;;;;;37.80;37.84;100038.66;4949975;28;128107;-68
2023/03/22 11:38:47;;;;;;;;;;;;;;;36.86;38.45;100029.44;4951846;28;127440;-65
2023/03/22 11:41:21;;;;;;;;;;;;;;;36.00;39.25;100032.50;4951418;28;128143;-65
2023/03/22 11:43:50;;;;;;;;;;;;;;;35.47;39.36;100020.97;4950238;28;98416;-67
2023/03/22 11:46:18;;;;;;;;;;;;;;;35.52;38.96;100017.63;4952387;28;98766;-64
2023/03/22 11:48:44;;;;;;;;;;;;;;;35.80;38.32;100021.50;4966821;27;99947;-65
2023/03/22 11:51:12;;;;;;;;;;;;;;;35.70;38.14;100016.28;4950641;28;110211;-65
2023/03/22 11:53:39;;;;;;;;;;;;;;;35.02;39.17;100007.16;4966889;28;113421;-65
2023/03/22 11:56:08;;;;;;;;;;;;;;;33.85;40.29;100021.03;4953941;28;125002;-65
2023/03/22 11:58:47;;;;;;;;;;;;;;;33.24;40.33;100010.47;4951945;28;98731;-68
2023/03/22 12:01:18;;;;;;;;;;;;;;;33.91;39.47;100010.91;4954102;28;97901;-65
2023/03/22 12:03:45;;;;;;;;;;;;;;;34.32;38.70;100008.69;4969008;28;98101;-65
2023/03/22 12:06:25;;;;;;;;;;;;;;;34.14;38.49;100007.16;4954339;28;124020;-65
2023/03/22 12:08:56;;;;;;;;;;;;;;;34.13;38.81;99994.41;4955552;28;99328;-65
2023/03/22 12:11:29;;;;;;;;;;;;;;;34.25;38.39;99994.91;4952565;28;98016;-64
2023/03/22 12:14:16;;;;;;;;;;;;;;;34.10;38.57;99994.50;4957783;28;112039;-65
2023/03/22 12:16:57;;;;;;;;;;;;;;;33.81;38.62;99994.41;4968920;28;98091;-66
2023/03/22 12:19:48;;;;;;;;;;;;;;;33.57;38.61;99993.81;4941769;28;126595;-67
2023/03/22 12:22:17;;;;;;;;;;;;;;;33.36;39.03;99986.69;4966645;27;98608;-65
2023/03/22 12:24:43;;;;;;;;;;;;;;;32.90;39.06;99996.88;4955467;28;106133;-64
2023/03/22 12:27:09;;;;;;;;;;;;;;;32.59;39.13;99988.72;4952986;28;127912;-68
2023/03/22 12:29:35;;;;;;;;;;;;;;;32.93;38.98;99985.66;4957820;28;98508;-66
2023/03/22 12:32:27;;;;;;;;;;;;;;;32.87;38.59;99975.41;4968551;28;98178;-67
2023/03/22 12:34:53;;;;;;;;;;;;;;;32.39;39.47;99987.91;4955489;28;97994;-64
2023/03/22 12:37:28;;;;;;;;;;;;;;;31.88;39.84;99990.81;4955558;28;97955;-67
2023/03/22 12:40:05;;;;;;;;;;;;;;;31.78;39.63;99984.16;4956397;28;119968;-64
2023/03/22 12:42:40;;;;;;;;;;;;;;;31.07;40.30;99982.44;4955704;27;119595;-65
2023/03/22 12:45:15;;;;;;;;;;;;;;;30.56;40.47;99978.69;4960264;28;98060;-66